createdAt,value
2019-01-29T00:02:13.145Z,2.13
2019-01-29T00:04:43.330Z,2.01
2019-01-29T00:07:13.435Z,2.05
2019-01-29T00:09:43.559Z,2.10
2019-01-29T00:12:13.681Z,2.08
2019-01-29T00:14:43.795Z,2.02
2019-01-29T00:17:13.944Z,2.10
2019-01-29T00:19:44.093Z,2.16
2019-01-29T00:22:14.198Z,2.18
2019-01-29T00:24:44.290Z,2.22
2019-01-29T00:27:14.451Z,2.24
2019-01-29T00:29:44.556Z,2.26
2019-01-29T00:32:14.704Z,2.23
2019-01-29T00:34:44.816Z,2.24
2019-01-29T00:37:14.934Z,2.24
2019-01-29T00:39:45.049Z,2.19
2019-01-29T00:42:15.211Z,2.15
2019-01-29T00:44:45.307Z,2.14
2019-01-29T00:47:15.442Z,2.14
2019-01-29T00:49:45.562Z,2.16
2019-01-29T00:52:15.682Z,2.17
2019-01-29T00:54:45.787Z,2.21
2019-01-29T00:57:15.950Z,2.23
2019-01-29T00:59:46.063Z,2.25
2019-01-29T01:02:16.208Z,2.30
2019-01-29T01:04:47.335Z,2.28
2019-01-29T01:07:17.461Z,2.32
2019-01-29T01:09:56.844Z,2.39
2019-01-29T01:12:21.504Z,2.41
2019-01-29T01:14:51.620Z,2.46
2019-01-29T01:17:21.785Z,2.42
2019-01-29T01:19:52.298Z,2.49
2019-01-29T01:22:22.428Z,2.50
2019-01-29T01:24:52.565Z,2.49
2019-01-29T01:27:22.682Z,2.52
2019-01-29T01:29:52.825Z,2.55
2019-01-29T01:32:22.984Z,2.53
2019-01-29T01:34:53.211Z,2.56
2019-01-29T01:37:23.363Z,2.60
2019-01-29T01:39:53.488Z,2.64
2019-01-29T01:42:23.627Z,2.67
2019-01-29T01:44:53.725Z,2.65
2019-01-29T01:47:23.860Z,2.64
2019-01-29T01:49:53.977Z,2.56
2019-01-29T01:52:24.122Z,2.57
2019-01-29T01:54:54.832Z,2.54
2019-01-29T01:57:24.956Z,2.48
2019-01-29T01:59:55.060Z,2.49
2019-01-29T02:02:25.206Z,2.49
2019-01-29T02:04:55.376Z,2.48
2019-01-29T02:07:25.472Z,2.47
2019-01-29T02:09:55.586Z,2.48
2019-01-29T02:12:25.721Z,2.47
2019-01-29T02:14:55.830Z,2.46
2019-01-29T02:17:25.985Z,2.48
2019-01-29T02:19:56.199Z,2.42
2019-01-29T02:22:26.300Z,2.42
2019-01-29T02:24:56.414Z,2.43
2019-01-29T02:27:26.560Z,2.41
2019-01-29T02:29:56.672Z,2.43
2019-01-29T02:32:26.808Z,2.43
2019-01-29T02:34:56.964Z,2.44
2019-01-29T02:37:27.278Z,2.39
2019-01-29T02:39:57.397Z,2.38
2019-01-29T02:42:27.526Z,2.42
2019-01-29T02:44:57.642Z,2.43
2019-01-29T02:47:27.777Z,2.37
2019-01-29T02:49:57.889Z,2.36
2019-01-29T02:52:28.017Z,2.33
2019-01-29T02:54:58.140Z,2.31
2019-01-29T02:57:28.348Z,2.32
2019-01-29T02:59:58.552Z,2.32
2019-01-29T03:02:28.711Z,2.33
2019-01-29T03:04:58.829Z,2.34
2019-01-29T03:07:28.979Z,2.38
2019-01-29T03:09:59.099Z,2.37
2019-01-29T03:12:29.230Z,2.40
2019-01-29T03:14:59.361Z,2.34
2019-01-29T03:17:30.925Z,2.42
2019-01-29T03:20:01.042Z,2.49
2019-01-29T03:22:31.204Z,2.51
2019-01-29T03:25:01.742Z,2.58
2019-01-29T03:27:31.894Z,2.62
2019-01-29T03:30:02.033Z,2.61
2019-01-29T03:32:33.237Z,2.68
2019-01-29T03:35:03.419Z,2.63
2019-01-29T03:37:33.732Z,2.68
2019-01-29T03:40:04.668Z,2.63
2019-01-29T03:42:34.832Z,2.57
2019-01-29T03:45:06.384Z,2.65
2019-01-29T03:47:36.516Z,2.69
2019-01-29T03:50:08.739Z,2.69
2019-01-29T03:52:38.920Z,2.63
2019-01-29T03:55:09.922Z,2.59
2019-01-29T03:57:40.032Z,2.61
2019-01-29T04:00:21.255Z,2.60
2019-01-29T04:02:51.443Z,2.59
2019-01-29T04:05:21.892Z,2.48
2019-01-29T04:07:52.201Z,2.47
2019-01-29T04:10:22.302Z,2.49
2019-01-29T04:12:52.406Z,2.48
2019-01-29T04:15:23.201Z,2.50
2019-01-29T04:17:57.387Z,2.48
2019-01-29T04:20:27.813Z,2.49
2019-01-29T04:22:57.908Z,2.49
2019-01-29T04:25:28.023Z,2.51
2019-01-29T04:27:58.165Z,2.51
2019-01-29T04:30:28.274Z,2.49
2019-01-29T04:32:58.390Z,2.49
2019-01-29T04:35:28.504Z,2.46
2019-01-29T04:37:58.614Z,2.42
2019-01-29T04:40:28.855Z,2.08
2019-01-29T04:42:58.971Z,2.07
2019-01-29T04:45:29.114Z,1.92
2019-01-29T04:47:59.260Z,1.80
2019-01-29T04:50:29.482Z,1.59
2019-01-29T04:52:59.697Z,1.52
2019-01-29T04:55:29.875Z,1.48
2019-01-29T04:58:00.004Z,1.47
2019-01-29T05:00:30.147Z,1.45
2019-01-29T05:03:00.277Z,1.43
2019-01-29T05:05:30.390Z,1.45
2019-01-29T05:08:00.536Z,1.28
2019-01-29T05:10:30.772Z,1.32
2019-01-29T05:13:00.880Z,1.31
2019-01-29T05:15:31.025Z,1.36
2019-01-29T05:18:01.155Z,1.19
2019-01-29T05:20:31.269Z,1.22
2019-01-29T05:23:01.389Z,1.19
2019-01-29T05:25:31.508Z,1.08
2019-01-29T05:28:01.618Z,1.17
2019-01-29T05:30:31.770Z,1.25
2019-01-29T05:33:01.919Z,1.19
2019-01-29T05:35:32.036Z,1.19
2019-01-29T05:38:04.165Z,1.17
2019-01-29T05:40:33.941Z,1.24
2019-01-29T05:43:04.174Z,1.19
2019-01-29T05:45:34.289Z,1.17
2019-01-29T05:48:04.411Z,1.04
2019-01-29T05:50:34.525Z,0.91
2019-01-29T05:53:04.666Z,0.88
2019-01-29T05:55:34.940Z,0.76
2019-01-29T05:58:05.060Z,0.82
2019-01-29T06:00:37.802Z,0.84
2019-01-29T06:03:08.692Z,0.93
2019-01-29T06:05:38.821Z,0.94
2019-01-29T06:08:08.929Z,0.95
2019-01-29T06:10:39.389Z,0.96
2019-01-29T06:13:09.730Z,0.97
2019-01-29T06:15:41.653Z,1.00
2019-01-29T06:18:11.845Z,1.02
2019-01-29T06:20:41.963Z,1.04
2019-01-29T06:23:12.084Z,1.06
2019-01-29T06:25:42.360Z,1.03
2019-01-29T06:28:12.540Z,1.02
2019-01-29T06:30:44.075Z,1.01
2019-01-29T06:33:15.223Z,0.97
2019-01-29T06:35:45.340Z,0.95
2019-01-29T06:38:15.447Z,0.96
2019-01-29T06:40:45.561Z,0.97
2019-01-29T06:43:15.763Z,0.97
2019-01-29T06:45:45.858Z,0.96
2019-01-29T06:48:16.624Z,0.90
2019-01-29T06:50:46.787Z,0.89
2019-01-29T06:53:16.943Z,0.80
2019-01-29T06:55:48.114Z,0.82
2019-01-29T06:58:18.223Z,0.86
2019-01-29T07:00:48.656Z,0.80
2019-01-29T07:03:18.760Z,0.69
2019-01-29T07:05:49.041Z,0.66
2019-01-29T07:08:19.604Z,0.67
2019-01-29T07:10:49.762Z,0.65
2019-01-29T07:13:19.881Z,0.71
2019-01-29T07:16:03.371Z,0.68
2019-01-29T07:18:43.252Z,0.70
2019-01-29T07:21:13.342Z,0.62
2019-01-29T07:23:43.498Z,0.68
2019-01-29T07:26:13.621Z,0.75
2019-01-29T07:28:43.752Z,0.80
2019-01-29T07:31:13.943Z,0.75
2019-01-29T07:33:44.056Z,0.63
2019-01-29T07:36:14.218Z,0.62
2019-01-29T07:38:44.353Z,0.62
2019-01-29T07:41:14.466Z,0.59
2019-01-29T07:43:44.653Z,0.51
2019-01-29T07:46:14.786Z,0.32
2019-01-29T07:48:44.904Z,0.24
2019-01-29T07:51:15.038Z,0.35
2019-01-29T07:53:45.177Z,0.40
2019-01-29T07:56:15.305Z,0.49
2019-01-29T07:58:45.435Z,0.47
2019-01-29T08:01:15.570Z,0.54
2019-01-29T08:03:45.704Z,0.53
2019-01-29T08:06:15.897Z,0.42
2019-01-29T08:08:46.070Z,0.47
2019-01-29T08:11:16.178Z,0.51
2019-01-29T08:13:46.302Z,0.45
2019-01-29T08:16:16.533Z,0.48
2019-01-29T08:18:46.671Z,0.52
2019-01-29T08:21:16.843Z,0.50
2019-01-29T08:23:46.968Z,0.50
2019-01-29T08:26:17.179Z,0.46
2019-01-29T08:28:48.029Z,0.45
2019-01-29T08:31:18.167Z,0.24
2019-01-29T08:33:48.335Z,0.44
2019-01-29T08:36:18.496Z,0.51
2019-01-29T08:38:49.353Z,0.55
2019-01-29T08:41:19.457Z,-0.04
2019-01-29T08:43:49.587Z,0.64
2019-01-29T08:46:19.724Z,0.56
2019-01-29T08:48:49.949Z,0.55
2019-01-29T08:51:20.145Z,0.51
2019-01-29T08:53:50.379Z,0.59
2019-01-29T08:56:20.534Z,0.64
2019-01-29T08:58:51.682Z,0.71
2019-01-29T09:01:21.826Z,0.78
2019-01-29T09:03:52.193Z,0.77
2019-01-29T09:06:22.348Z,0.83
2019-01-29T09:08:52.531Z,0.91
2019-01-29T09:11:22.745Z,0.97
2019-01-29T09:13:52.867Z,0.88
2019-01-29T09:16:23.003Z,0.88
2019-01-29T09:18:53.182Z,0.88
2019-01-29T09:21:23.372Z,0.84
2019-01-29T09:23:53.535Z,0.79
2019-01-29T09:26:24.000Z,0.59
2019-01-29T09:28:54.222Z,0.67
2019-01-29T09:31:24.347Z,0.78
2019-01-29T09:33:54.482Z,0.69
2019-01-29T09:36:25.294Z,0.73
2019-01-29T09:38:55.470Z,0.60
2019-01-29T09:41:25.574Z,0.54
2019-01-29T09:43:55.758Z,0.65
2019-01-29T09:46:25.938Z,0.60
2019-01-29T09:48:56.990Z,0.60
2019-01-29T09:51:27.044Z,0.65
2019-01-29T09:53:57.177Z,0.71
2019-01-29T09:56:27.479Z,0.73
2019-01-29T09:58:57.794Z,0.73
2019-01-29T10:01:27.933Z,0.81
2019-01-29T10:03:58.088Z,0.76
2019-01-29T10:06:28.927Z,0.80
2019-01-29T10:08:59.134Z,0.91
2019-01-29T10:11:29.339Z,0.75
2019-01-29T10:13:59.586Z,0.78
2019-01-29T10:16:30.065Z,0.76
2019-01-29T10:19:00.830Z,0.81
2019-01-29T10:21:30.985Z,0.90
2019-01-29T10:24:01.242Z,0.93
2019-01-29T10:26:31.447Z,0.88
2019-01-29T10:29:03.196Z,0.95
2019-01-29T10:31:33.471Z,0.94
2019-01-29T10:34:03.687Z,1.00
2019-01-29T10:36:33.921Z,0.90
2019-01-29T10:39:06.555Z,0.89
2019-01-29T10:41:36.700Z,0.96
2019-01-29T10:44:07.026Z,1.04
2019-01-29T10:46:37.282Z,1.16
2019-01-29T10:49:07.961Z,1.21
2019-01-29T10:51:38.959Z,1.21
2019-01-29T10:54:09.218Z,1.07
2019-01-29T10:56:40.472Z,1.02
2019-01-29T10:59:10.559Z,1.10
2019-01-29T11:01:40.763Z,1.15
2019-01-29T11:04:10.933Z,1.10
2019-01-29T11:06:41.116Z,1.15
2019-01-29T11:09:13.723Z,1.13
2019-01-29T11:11:43.919Z,1.17
2019-01-29T11:14:14.058Z,0.98
2019-01-29T11:16:44.746Z,1.05
2019-01-29T11:19:14.864Z,0.90
2019-01-29T11:21:44.984Z,0.87
2019-01-29T11:24:15.086Z,0.78
2019-01-29T11:26:45.188Z,0.86
2019-01-29T11:29:15.320Z,0.83
2019-01-29T11:31:45.432Z,0.90
2019-01-29T11:34:15.533Z,0.85
2019-01-29T11:36:45.681Z,0.79
2019-01-29T11:39:15.773Z,0.89
2019-01-29T11:41:45.896Z,0.88
2019-01-29T11:44:16.044Z,0.91
2019-01-29T11:46:46.294Z,0.83
2019-01-29T11:49:16.436Z,0.84
2019-01-29T11:51:46.682Z,0.77
2019-01-29T11:54:16.804Z,0.85
2019-01-29T11:56:47.086Z,0.97
2019-01-29T11:59:17.227Z,1.07
2019-01-29T12:01:47.363Z,1.08
2019-01-29T12:04:19.171Z,1.12
2019-01-29T12:06:50.493Z,1.14
2019-01-29T12:09:20.618Z,1.09
2019-01-29T12:11:51.917Z,1.07
2019-01-29T12:14:22.024Z,0.91
2019-01-29T12:16:52.156Z,0.95
2019-01-29T12:19:22.322Z,0.90
2019-01-29T12:21:52.463Z,0.68
2019-01-29T12:24:22.537Z,0.73
2019-01-29T12:26:52.631Z,0.71
2019-01-29T12:29:22.754Z,0.64
2019-01-29T12:31:53.518Z,0.59
2019-01-29T12:34:23.692Z,0.57
2019-01-29T12:36:53.835Z,0.60
2019-01-29T12:39:23.953Z,0.57
2019-01-29T12:41:54.078Z,0.47
2019-01-29T12:44:24.223Z,0.48
2019-01-29T12:46:54.368Z,0.55
2019-01-29T12:49:24.597Z,0.42
2019-01-29T12:52:04.232Z,0.48
2019-01-29T12:54:34.357Z,0.51
2019-01-29T12:57:04.790Z,0.47
2019-01-29T12:59:34.911Z,0.34
2019-01-29T13:02:05.199Z,0.51
2019-01-29T13:04:35.311Z,0.46
2019-01-29T13:07:05.496Z,0.44
2019-01-29T13:09:35.585Z,0.33
2019-01-29T13:12:06.426Z,0.30
2019-01-29T13:14:36.647Z,0.31
2019-01-29T13:17:07.766Z,0.38
2019-01-29T13:19:38.267Z,0.42
2019-01-29T13:22:08.450Z,0.55
2019-01-29T13:24:38.688Z,0.39
2019-01-29T13:27:08.883Z,0.48
2019-01-29T13:29:38.984Z,0.40
2019-01-29T13:32:09.122Z,0.39
2019-01-29T13:34:39.328Z,0.33
2019-01-29T13:37:09.534Z,0.32
2019-01-29T13:39:39.638Z,0.22
2019-01-29T13:42:09.847Z,0.32
2019-01-29T13:44:40.017Z,0.36
2019-01-29T13:47:10.191Z,0.36
2019-01-29T13:49:40.317Z,0.33
2019-01-29T13:52:10.457Z,0.13
2019-01-29T13:54:40.616Z,0.22
2019-01-29T13:57:10.759Z,0.10
2019-01-29T13:59:40.886Z,0.22
2019-01-29T14:02:11.161Z,0.14
2019-01-29T14:04:41.383Z,0.24
2019-01-29T14:07:11.939Z,0.24
2019-01-29T14:09:42.029Z,0.30
2019-01-29T14:12:12.117Z,0.27
2019-01-29T14:14:42.221Z,0.29
2019-01-29T14:17:12.312Z,0.26
2019-01-29T14:19:42.399Z,0.15
2019-01-29T14:22:12.620Z,0.21
2019-01-29T14:24:43.560Z,0.29
2019-01-29T14:27:14.778Z,0.18
2019-01-29T14:29:44.898Z,0.26
2019-01-29T14:32:16.136Z,0.36
2019-01-29T14:34:46.281Z,0.24
2019-01-29T14:37:16.379Z,0.18
2019-01-29T14:40:19.292Z,0.13
2019-01-29T14:42:50.529Z,-0.04
2019-01-29T14:45:25.826Z,-0.14
2019-01-29T14:47:55.905Z,-0.23
2019-01-29T14:50:29.267Z,-0.27
2019-01-29T14:52:59.414Z,-0.30
2019-01-29T14:55:29.540Z,-0.25
2019-01-29T14:58:00.156Z,-0.19
2019-01-29T15:00:31.232Z,-0.25
2019-01-29T15:03:01.488Z,-0.16
2019-01-29T15:05:31.603Z,-0.24
2019-01-29T15:08:01.961Z,-0.38
2019-01-29T15:10:32.256Z,-0.29
2019-01-29T15:13:02.638Z,-0.24
2019-01-29T15:15:35.147Z,-0.27
2019-01-29T15:18:14.352Z,-0.45
2019-01-29T15:20:44.481Z,-0.41
2019-01-29T15:23:14.699Z,-0.49
2019-01-29T15:25:44.824Z,-0.63
2019-01-29T15:28:16.000Z,-0.55
2019-01-29T15:30:46.097Z,-0.75
2019-01-29T15:33:16.561Z,-0.74
2019-01-29T15:35:46.910Z,-0.73
2019-01-29T15:38:17.208Z,-0.73
2019-01-29T15:40:47.596Z,-0.69
2019-01-29T15:43:17.887Z,-0.65
2019-01-29T15:45:48.012Z,-0.69
2019-01-29T15:48:18.241Z,-0.81
2019-01-29T15:50:48.387Z,-0.83
2019-01-29T15:53:18.657Z,-0.83
2019-01-29T15:55:48.778Z,-0.85
2019-01-29T15:58:18.990Z,-0.77
2019-01-29T16:00:49.316Z,-0.79
2019-01-29T16:03:19.806Z,-0.84
2019-01-29T16:05:50.009Z,-0.75
2019-01-29T16:08:20.141Z,-0.73
2019-01-29T16:10:50.256Z,-0.77
2019-01-29T16:13:20.373Z,-0.75
2019-01-29T16:15:50.561Z,-0.85
2019-01-29T16:18:20.681Z,-0.77
2019-01-29T16:20:50.762Z,-0.95
2019-01-29T16:23:20.886Z,-0.95
2019-01-29T16:25:50.999Z,-0.90
2019-01-29T16:28:21.111Z,-0.91
2019-01-29T16:30:51.210Z,-0.90
2019-01-29T16:33:21.322Z,-0.85
2019-01-29T16:35:51.452Z,-0.79
2019-01-29T16:38:21.666Z,-0.89
2019-01-29T16:41:00.124Z,-0.72
2019-01-29T16:43:23.613Z,-0.69
2019-01-29T16:45:53.716Z,-0.63
2019-01-29T16:48:23.812Z,-0.75
2019-01-29T16:50:53.900Z,-0.81
2019-01-29T16:53:25.217Z,-0.89
2019-01-29T16:55:55.300Z,-0.83
2019-01-29T16:58:25.496Z,-0.80
2019-01-29T17:00:55.612Z,-0.74
2019-01-29T17:03:25.727Z,-0.72
2019-01-29T17:05:55.871Z,-0.76
2019-01-29T17:08:26.035Z,-0.70
2019-01-29T17:10:56.176Z,-0.71
2019-01-29T17:13:26.239Z,-0.77
2019-01-29T17:15:56.441Z,-0.82
2019-01-29T17:18:26.545Z,-0.80
2019-01-29T17:20:56.646Z,-0.85
2019-01-29T17:23:26.759Z,-0.90
2019-01-29T17:25:56.868Z,-0.88
2019-01-29T17:28:26.979Z,-0.86
2019-01-29T17:30:57.080Z,-0.87
2019-01-29T17:33:27.274Z,-0.96
2019-01-29T17:35:58.369Z,-0.96
2019-01-29T17:38:28.472Z,-0.90
2019-01-29T17:40:58.587Z,-1.22
2019-01-29T17:43:28.670Z,-1.08
2019-01-29T17:45:58.796Z,-1.00
2019-01-29T17:48:29.027Z,-1.73
2019-01-29T17:50:59.147Z,-1.02
2019-01-29T17:53:29.508Z,-1.09
2019-01-29T17:55:59.747Z,-1.15
2019-01-29T17:58:29.861Z,-1.14
2019-01-29T18:01:01.940Z,-1.21
2019-01-29T18:03:32.059Z,-1.23
2019-01-29T18:06:02.185Z,-1.26
2019-01-29T18:08:32.426Z,-1.34
2019-01-29T18:11:02.541Z,-1.45
2019-01-29T18:13:32.730Z,-1.59
2019-01-29T18:16:02.856Z,-1.59
2019-01-29T18:18:32.957Z,-1.61
2019-01-29T18:21:03.096Z,-1.61
2019-01-29T18:23:33.205Z,-1.56
2019-01-29T18:26:04.313Z,-1.49
2019-01-29T18:28:34.519Z,-1.46
2019-01-29T18:31:04.794Z,-1.47
2019-01-29T18:33:34.949Z,-1.45
2019-01-29T18:36:05.379Z,-1.38
2019-01-29T18:38:35.513Z,-1.40
2019-01-29T18:41:05.807Z,-1.41
2019-01-29T18:43:36.095Z,-1.25
2019-01-29T18:46:08.126Z,-1.20
2019-01-29T18:48:38.246Z,-1.30
2019-01-29T18:51:08.380Z,-1.33
2019-01-29T18:53:38.492Z,-1.43
2019-01-29T18:56:08.633Z,-1.30
2019-01-29T18:58:38.921Z,-1.29
2019-01-29T19:01:09.063Z,-1.26
2019-01-29T19:03:39.161Z,-1.42
2019-01-29T19:06:10.060Z,-1.44
2019-01-29T19:08:40.567Z,-1.45
2019-01-29T19:11:13.082Z,-1.52
2019-01-29T19:13:43.223Z,-1.36
2019-01-29T19:16:15.689Z,-1.34
2019-01-29T19:18:45.159Z,-1.42
2019-01-29T19:21:15.434Z,-1.54
2019-01-29T19:23:45.549Z,-1.56
2019-01-29T19:26:15.736Z,-1.68
2019-01-29T19:28:45.866Z,-1.89
2019-01-29T19:31:15.983Z,-1.88
2019-01-29T19:33:46.246Z,-1.82
2019-01-29T19:36:16.368Z,-1.79
2019-01-29T19:38:46.470Z,-1.77
2019-01-29T19:41:16.692Z,-1.70
2019-01-29T19:43:46.802Z,-1.71
2019-01-29T19:46:16.925Z,-1.72
2019-01-29T19:48:47.090Z,-1.56
2019-01-29T19:51:17.201Z,-1.49
2019-01-29T19:53:47.312Z,-1.48
2019-01-29T19:56:17.678Z,-1.49
2019-01-29T19:58:48.087Z,-1.50
2019-01-29T20:01:18.273Z,-1.65
2019-01-29T20:03:48.506Z,-1.62
2019-01-29T20:06:18.681Z,-1.63
2019-01-29T20:08:48.899Z,-1.69
2019-01-29T20:11:19.265Z,-1.77
2019-01-29T20:13:49.428Z,-1.74
2019-01-29T20:16:19.565Z,-1.71
2019-01-29T20:18:49.990Z,-1.68
2019-01-29T20:21:20.154Z,-1.66
2019-01-29T20:23:50.513Z,-1.65
2019-01-29T20:26:20.836Z,-1.65
2019-01-29T20:28:51.408Z,-1.65
2019-01-29T20:31:21.742Z,-1.55
2019-01-29T20:33:51.914Z,-1.59
2019-01-29T20:36:23.038Z,-1.70
2019-01-29T20:38:53.487Z,-1.63
2019-01-29T20:41:23.735Z,-1.58
2019-01-29T20:43:53.877Z,-1.54
2019-01-29T20:46:24.302Z,-1.57
2019-01-29T20:48:54.570Z,-1.51
2019-01-29T20:51:24.690Z,-1.58
2019-01-29T20:53:54.991Z,-1.50
2019-01-29T20:56:25.227Z,-1.52
2019-01-29T20:58:55.414Z,-1.50
2019-01-29T21:01:25.672Z,-1.50
2019-01-29T21:03:55.800Z,-1.46
2019-01-29T21:06:25.909Z,-1.41
2019-01-29T21:08:56.491Z,-1.37
2019-01-29T21:11:26.951Z,-1.35
2019-01-29T21:13:57.198Z,-1.38
2019-01-29T21:16:27.325Z,-1.38
2019-01-29T21:18:58.239Z,-1.36
2019-01-29T21:21:28.493Z,-1.45
2019-01-29T21:23:58.635Z,-1.45
2019-01-29T21:26:28.849Z,-1.38
2019-01-29T21:29:03.192Z,-1.30
2019-01-29T21:31:30.809Z,-1.35
2019-01-29T21:34:00.937Z,-1.33
2019-01-29T21:36:31.059Z,-1.42
2019-01-29T21:39:01.171Z,-1.44
2019-01-29T21:41:32.895Z,-1.36
2019-01-29T21:44:03.017Z,-1.33
2019-01-29T21:46:33.156Z,-1.44
2019-01-29T21:49:03.272Z,-1.49
2019-01-29T21:51:33.370Z,-1.65
2019-01-29T21:54:03.472Z,-1.54
2019-01-29T21:56:33.588Z,-1.52
2019-01-29T21:59:12.937Z,-1.56
2019-01-29T22:01:35.493Z,-1.56
2019-01-29T22:04:05.603Z,-1.66
2019-01-29T22:06:35.697Z,-1.56
2019-01-29T22:09:09.424Z,-1.73
2019-01-29T22:11:39.518Z,-1.75
2019-01-29T22:14:10.709Z,-1.76
2019-01-29T22:16:41.296Z,-1.81
2019-01-29T22:19:11.407Z,-1.83
2019-01-29T22:21:41.509Z,-1.78
2019-01-29T22:24:11.631Z,-1.81
2019-01-29T22:26:41.747Z,-1.87
2019-01-29T22:29:11.855Z,-1.90
2019-01-29T22:31:41.947Z,-1.88
2019-01-29T22:34:12.088Z,-1.96
2019-01-29T22:36:42.199Z,-1.90
2019-01-29T22:39:12.371Z,-1.81
2019-01-29T22:41:42.468Z,-1.81
2019-01-29T22:44:12.565Z,-1.77
2019-01-29T22:46:42.690Z,-1.72
2019-01-29T22:49:12.870Z,-1.72
2019-01-29T22:51:42.978Z,-1.69
2019-01-29T22:54:13.100Z,-1.68
2019-01-29T22:56:43.200Z,-1.71
2019-01-29T22:59:13.315Z,-1.69
2019-01-29T23:01:43.785Z,-1.74
2019-01-29T23:04:29.420Z,-1.70
2019-01-29T23:07:14.615Z,-1.71
2019-01-29T23:09:44.749Z,-1.69
2019-01-29T23:12:14.879Z,-1.66
2019-01-29T23:14:45.044Z,-1.72
2019-01-29T23:17:15.142Z,-1.79
2019-01-29T23:19:45.279Z,-1.66
2019-01-29T23:22:15.395Z,-1.67
2019-01-29T23:24:45.511Z,-1.57
2019-01-29T23:27:15.612Z,-1.54
2019-01-29T23:29:45.714Z,-1.51
2019-01-29T23:32:17.003Z,-1.46
2019-01-29T23:34:47.103Z,-1.41
2019-01-29T23:37:17.230Z,-1.33
2019-01-29T23:39:47.425Z,-1.37
2019-01-29T23:42:17.584Z,-1.37
2019-01-29T23:44:47.686Z,-1.32
2019-01-29T23:47:17.814Z,-1.27
2019-01-29T23:49:47.934Z,-1.27
2019-01-29T23:52:18.011Z,-1.39
2019-01-29T23:54:48.120Z,-1.47
2019-01-29T23:57:18.230Z,-1.44
2019-01-29T23:59:53.623Z,-1.39
